Aérodrome :
LOGIN :

S'inscrire | Disclaimer

   EN    FR    IT 

 










Légende :    VFR   VFR Marginal   IFR   IFR Intensif   IFR Très Intensif
Visi : 
Plafond : 
>= 8 km
>= 3000ft
5 à 8 km
1000 à 3000 ft
1500m à 5 km
500 à 1000 ft
800 à 1500m
200 à 500 ft
< 800m
< 200 ft
Symboles :   Orages  Brouillard  Fortes neiges  Fortes précipitations  Vent > 20 kt
SIGMETs :   Divers  Orages  Givrage  Turbulence  Onde Orograph.  Cendres Volcan.






- Altitude de l'aérodrome : 162 ft
- Code IATA : BOD


LFBD - Bordeaux / Merignac

DERNIER METAR :
  • 232000Z AUTO 24009KT CAVOK 06/03 Q1001

METARs EXPIRÉS :
  • 231930Z AUTO 25010KT 9999 FEW041/// SCT160/// BKN210/// //////TCU 06/04 Q1001
  • 231900Z AUTO 26012KT 9999 SCT042/// BKN064/// BKN082/// ///CB 06/04 Q1001
  • 231830Z AUTO 22007KT 9999 FEW039/// BKN180/// OVC210/// ///TCU 05/04 Q1001
  • 231800Z AUTO 22007KT 200V260 9999 FEW023/// BKN100/// BKN170/// ///CB 05/03 Q1001
  • 231730Z AUTO 30015G32KT 270V340 5000 -TSSNRA BR SCT020/// BKN034/// BKN044/// ///CB 05/03 Q1000
  • 231700Z AUTO 23014KT 9999 FEW028/// SCT049/// BKN190/// ///CB 07/05 Q1000
  • 231630Z AUTO 23013KT 9999 -RA FEW017/// SCT029/// BKN048/// ///CB 07/05 Q1000
  • 231600Z AUTO 24009KT 9999 RA FEW030/// SCT058/// BKN082/// ///CB 07/06 Q1001
  • 231530Z AUTO 26009KT 9999 FEW017/// SCT034/// BKN045/// ///CB 07/06 Q1001

TAF TAF LFBD
Valide du 23 à 06h jusqu'au 24 à 12h UTC


230500Z 2306/2412 21010KT 9999 BKN040 TX10/2314Z TN04/2403Z
TEMPO 2306/2321 25015G30KT 3000 SHRA FEW015CB BKN020TCU
PROB30
TEMPO 2306/2318 25025G40KT 1500 TSRAGS BKN008 BKN015CB
PROB30
TEMPO 2321/2403 4000 -SHRA BKN020TCU
ATIS : +33 5 57 92 81 04



MET'MAP, la Météo Aéronautique d'un coup d'oeil ! - Copyright ORBIFLY Décembre 2007 - Disclaimer

ORBIFLY MET'MAP TEAM :

Programmation & Développement : Alexandra Zaïnal
Sur une idée originale de : Baudouin d'Aumeries
Soutien technique & logistique : Manuel Goepfert
Assistance : Marc-Olivier Méhu




SOURCES & CREDITS :

   NOAA